Time;durP1;ratioP1;P1;durP2;ratioP2;P2;SDS_P1;SDS_P2;PMS_P1;PMS_P2;Temp;Humidity;BMP_temperature;BMP_pressure;BME280_temperature;BME280_humidity;BME280_pressure;Samples;Min_cycle;Max_cycle;Signal;HPM_P1;HPM_P2
2024/01/05 00:01:38;;;;;;;11.50;10.47;;;6.00;99.90;;;;;;4878240;29;20262;-78
2024/01/05 00:04:05;;;;;;;11.50;10.40;;;6.00;99.90;;;;;;4876824;29;20235;-78
2024/01/05 00:06:32;;;;;;;11.13;10.40;;;6.00;99.90;;;;;;4878122;29;20200;-78
2024/01/05 00:08:58;;;;;;;11.83;10.70;;;6.00;99.90;;;;;;4878169;29;20212;-78
2024/01/05 00:11:25;;;;;;;12.53;10.53;;;6.00;99.90;;;;;;4876664;29;20215;-78
2024/01/05 00:13:52;;;;;;;11.37;10.53;;;6.00;99.90;;;;;;4870203;29;20309;-78
2024/01/05 00:16:22;;;;;;;11.87;10.73;;;6.10;99.90;;;;;;4876701;29;20231;-78
2024/01/05 00:18:49;;;;;;;11.00;10.20;;;6.10;99.90;;;;;;4876544;29;20328;-78
2024/01/05 00:21:20;;;;;;;10.90;10.20;;;6.10;99.90;;;;;;4877937;29;20255;-78
2024/01/05 00:23:47;;;;;;;11.43;10.67;;;6.00;99.90;;;;;;4880408;29;20279;-78
2024/01/05 00:26:14;;;;;;;10.90;10.20;;;6.00;99.90;;;;;;4883003;29;20205;-79
2024/01/05 00:28:41;;;;;;;11.80;10.70;;;6.00;99.90;;;;;;4879945;29;20231;-78
2024/01/05 00:31:10;;;;;;;11.57;10.67;;;6.00;99.90;;;;;;4877976;29;20264;-78
2024/01/05 00:33:38;;;;;;;11.07;10.37;;;6.00;99.90;;;;;;4877444;29;20291;-77
2024/01/05 00:36:06;;;;;;;12.10;11.20;;;6.10;99.90;;;;;;4876851;29;20243;-78
2024/01/05 00:38:33;;;;;;;11.80;10.70;;;6.10;99.90;;;;;;4876443;29;20214;-78
2024/01/05 00:41:00;;;;;;;11.20;10.40;;;6.10;99.90;;;;;;4876612;29;20231;-78
2024/01/05 00:43:27;;;;;;;11.90;10.80;;;6.20;99.90;;;;;;4877421;29;20230;-77
2024/01/05 00:45:54;;;;;;;11.10;10.20;;;6.20;99.90;;;;;;4877662;29;20684;-78
2024/01/05 00:48:22;;;;;;;10.90;10.03;;;6.20;99.90;;;;;;4876196;29;20283;-77
2024/01/05 00:50:51;;;;;;;11.50;10.50;;;6.20;99.90;;;;;;4876422;29;20208;-78
2024/01/05 00:53:17;;;;;;;11.50;10.50;;;6.20;99.90;;;;;;4877635;29;20221;-78
2024/01/05 00:55:44;;;;;;;11.13;10.30;;;6.20;99.90;;;;;;4878601;29;20225;-78
2024/01/05 00:58:11;;;;;;;11.40;10.60;;;6.20;99.90;;;;;;4881232;29;20204;-78
2024/01/05 01:00:38;;;;;;;11.70;10.67;;;6.20;99.90;;;;;;4881294;29;20227;-78
2024/01/05 01:03:05;;;;;;;10.70;10.10;;;6.20;99.90;;;;;;4879770;29;20733;-77
2024/01/05 01:05:32;;;;;;;11.43;10.70;;;6.20;99.90;;;;;;4880101;29;20256;-78
2024/01/05 01:08:00;;;;;;;10.90;10.20;;;6.20;99.90;;;;;;4880047;29;20207;-78
2024/01/05 01:10:27;;;;;;;11.63;10.60;;;6.20;99.90;;;;;;4879941;29;20650;-77
2024/01/05 01:12:53;;;;;;;11.10;10.30;;;6.20;99.90;;;;;;4880814;29;20287;-77
2024/01/05 01:15:20;;;;;;;10.87;10.17;;;6.20;99.90;;;;;;4880807;29;20221;-77
2024/01/05 01:17:47;;;;;;;11.00;10.17;;;6.20;99.90;;;;;;4880599;29;20219;-78
2024/01/05 01:20:14;;;;;;;10.80;9.97;;;6.20;99.90;;;;;;4880918;29;20200;-77
2024/01/05 01:22:41;;;;;;;11.00;10.27;;;6.20;99.90;;;;;;4879551;29;20215;-77
2024/01/05 01:25:09;;;;;;;12.27;11.20;;;6.20;99.90;;;;;;4879771;29;20250;-78
2024/01/05 01:27:36;;;;;;;11.80;10.90;;;6.20;99.90;;;;;;4880918;29;20216;-78
2024/01/05 01:30:03;;;;;;;12.17;11.27;;;6.10;99.90;;;;;;4879434;29;20215;-79
2024/01/05 01:32:29;;;;;;;12.43;11.50;;;6.10;99.90;;;;;;4880609;29;20204;-78
2024/01/05 01:34:56;;;;;;;13.10;12.00;;;6.10;99.90;;;;;;4880387;29;20201;-78
2024/01/05 01:37:23;;;;;;;12.50;11.60;;;6.10;99.90;;;;;;4880880;29;20208;-78
2024/01/05 01:39:50;;;;;;;12.40;11.50;;;6.00;99.90;;;;;;4880485;29;20211;-77
2024/01/05 01:42:18;;;;;;;12.30;11.50;;;6.00;99.90;;;;;;4875769;29;20231;-78
2024/01/05 01:44:45;;;;;;;12.43;11.53;;;6.00;99.90;;;;;;4880510;29;20220;-77
2024/01/05 01:47:12;;;;;;;12.10;11.30;;;6.00;99.90;;;;;;4880582;29;20193;-78
2024/01/05 01:49:39;;;;;;;13.13;12.10;;;5.90;99.90;;;;;;4879051;29;20211;-77
2024/01/05 01:52:07;;;;;;;13.07;12.00;;;5.90;99.90;;;;;;4880392;29;20196;-78
2024/01/05 01:54:35;;;;;;;13.10;11.97;;;5.80;99.90;;;;;;4880449;29;20229;-78
2024/01/05 01:57:03;;;;;;;13.10;12.10;;;5.80;99.90;;;;;;4879069;29;20272;-77
2024/01/05 01:59:31;;;;;;;12.57;11.67;;;5.80;99.90;;;;;;4878804;29;20213;-78
2024/01/05 02:01:59;;;;;;;13.70;12.60;;;5.70;99.90;;;;;;4879982;29;20204;-78
2024/01/05 02:04:28;;;;;;;12.87;11.87;;;5.60;99.90;;;;;;4886533;29;20248;-78
2024/01/05 02:06:55;;;;;;;12.97;11.80;;;5.60;99.90;;;;;;4879617;29;20209;-78
2024/01/05 02:09:22;;;;;;;13.13;12.03;;;5.50;99.90;;;;;;4884859;29;20199;-77
2024/01/05 02:11:49;;;;;;;12.60;11.70;;;5.50;99.90;;;;;;4878651;29;20675;-78
2024/01/05 02:14:16;;;;;;;13.30;12.20;;;5.50;99.90;;;;;;4880172;29;20242;-77
2024/01/05 02:16:44;;;;;;;12.33;11.50;;;5.50;99.90;;;;;;4879821;29;20233;-78
2024/01/05 02:19:11;;;;;;;12.60;11.60;;;5.50;99.90;;;;;;4879534;29;20671;-78
2024/01/05 02:21:40;;;;;;;12.47;11.57;;;5.60;99.90;;;;;;4878678;29;20679;-77
2024/01/05 02:24:09;;;;;;;12.33;11.43;;;5.50;99.90;;;;;;4880180;29;20222;-78
2024/01/05 02:26:35;;;;;;;13.03;11.93;;;5.50;99.90;;;;;;4880229;29;20295;-78
2024/01/05 02:29:03;;;;;;;14.23;13.10;;;5.40;99.90;;;;;;4879544;29;20206;-77
2024/01/05 02:31:30;;;;;;;14.60;13.20;;;5.30;99.90;;;;;;4879880;29;20718;-78
2024/01/05 02:33:57;;;;;;;14.00;12.80;;;5.20;99.90;;;;;;4877944;29;20227;-77
2024/01/05 02:36:23;;;;;;;15.37;13.97;;;5.10;99.90;;;;;;4878520;29;20638;-78
2024/01/05 02:38:50;;;;;;;14.10;12.90;;;5.10;99.90;;;;;;4878152;29;20216;-77
2024/01/05 02:41:18;;;;;;;13.60;12.40;;;5.10;99.90;;;;;;4878427;29;20231;-78
2024/01/05 02:43:45;;;;;;;14.47;13.10;;;5.10;99.90;;;;;;4879256;29;20231;-77
2024/01/05 02:46:12;;;;;;;13.73;12.60;;;5.00;99.90;;;;;;4879473;29;20563;-78
2024/01/05 02:48:39;;;;;;;13.40;12.47;;;5.00;99.90;;;;;;4877926;29;20700;-77
2024/01/05 02:51:05;;;;;;;13.57;12.50;;;5.00;99.90;;;;;;4879203;29;20227;-78
2024/01/05 02:53:32;;;;;;;13.73;12.70;;;5.00;99.90;;;;;;4877915;29;20272;-78
2024/01/05 02:55:59;;;;;;;14.17;13.00;;;5.00;99.90;;;;;;4880150;29;20231;-77
2024/01/05 02:58:27;;;;;;;14.37;13.07;;;5.00;99.90;;;;;;4882509;29;20206;-78
2024/01/05 03:00:54;;;;;;;13.07;12.07;;;5.00;99.90;;;;;;4879240;29;20206;-78
2024/01/05 03:03:21;;;;;;;13.67;12.60;;;5.00;99.90;;;;;;4883070;29;20222;-78
2024/01/05 03:05:47;;;;;;;14.30;13.20;;;5.00;99.90;;;;;;4879301;29;20198;-78
2024/01/05 03:08:15;;;;;;;14.00;12.60;;;4.90;99.90;;;;;;4879260;29;20260;-77
2024/01/05 03:10:41;;;;;;;12.97;11.87;;;4.90;99.90;;;;;;4878034;29;20249;-78
2024/01/05 03:13:08;;;;;;;14.20;12.90;;;4.90;99.90;;;;;;4879044;29;20741;-78
2024/01/05 03:15:36;;;;;;;14.20;12.97;;;4.90;99.90;;;;;;4878982;29;20746;-78
2024/01/05 03:18:04;;;;;;;14.00;12.80;;;4.90;99.90;;;;;;4877334;29;20205;-78
2024/01/05 03:20:30;;;;;;;14.10;12.87;;;4.90;99.90;;;;;;4877606;29;20213;-78
2024/01/05 03:22:57;;;;;;;14.17;12.90;;;4.80;99.90;;;;;;4877311;29;20235;-78
2024/01/05 03:25:24;;;;;;;14.00;12.80;;;4.90;99.90;;;;;;4879249;29;20202;-78
2024/01/05 03:27:51;;;;;;;13.60;12.50;;;4.90;99.90;;;;;;4877357;29;20237;-77
2024/01/05 03:30:18;;;;;;;13.73;12.73;;;4.90;99.90;;;;;;4877367;29;20200;-77
2024/01/05 03:32:46;;;;;;;13.87;12.67;;;4.90;99.90;;;;;;4884725;29;20216;-78
2024/01/05 03:35:13;;;;;;;14.03;12.63;;;4.90;99.90;;;;;;4880337;29;20197;-77
2024/01/05 03:37:40;;;;;;;13.90;12.60;;;4.90;99.90;;;;;;4877460;29;20290;-77
2024/01/05 03:40:08;;;;;;;13.40;12.30;;;4.80;99.90;;;;;;4878341;29;20704;-77
2024/01/05 03:42:35;;;;;;;14.70;13.13;;;4.80;99.90;;;;;;4878706;29;20209;-78
2024/01/05 03:45:02;;;;;;;13.93;12.60;;;4.80;99.90;;;;;;4878640;29;20575;-77
2024/01/05 03:47:28;;;;;;;13.97;12.80;;;4.70;99.90;;;;;;4878679;29;20361;-76
2024/01/05 03:49:56;;;;;;;13.63;12.50;;;4.70;99.90;;;;;;4878557;29;20215;-79
2024/01/05 03:52:23;;;;;;;13.83;12.73;;;4.70;99.90;;;;;;4880490;29;20210;-79
2024/01/05 03:54:50;;;;;;;14.27;12.97;;;4.70;99.90;;;;;;4878751;29;20222;-78
2024/01/05 03:57:17;;;;;;;14.03;13.03;;;4.70;99.90;;;;;;4875989;29;20207;-78
2024/01/05 03:59:44;;;;;;;13.60;12.67;;;4.70;99.90;;;;;;4877301;29;20257;-76
2024/01/05 04:02:10;;;;;;;13.33;12.27;;;4.70;99.90;;;;;;4876344;29;20753;-77
2024/01/05 04:04:38;;;;;;;14.13;12.80;;;4.70;99.90;;;;;;4876558;29;20282;-77
2024/01/05 04:07:06;;;;;;;13.57;12.53;;;4.70;99.90;;;;;;4876742;29;20265;-77
2024/01/05 04:09:33;;;;;;;13.73;12.77;;;4.70;99.90;;;;;;4876622;29;20678;-77
2024/01/05 04:12:00;;;;;;;14.90;13.50;;;4.60;99.90;;;;;;4873247;29;20241;-77
2024/01/05 04:14:27;;;;;;;14.20;13.10;;;4.60;99.90;;;;;;4877957;29;20230;-76
2024/01/05 04:16:53;;;;;;;14.60;13.27;;;4.60;99.90;;;;;;4885790;29;20256;-78
2024/01/05 04:19:21;;;;;;;13.70;12.50;;;4.50;99.90;;;;;;4884117;29;20198;-78
2024/01/05 04:21:48;;;;;;;13.70;12.50;;;4.50;99.90;;;;;;4880516;29;20202;-77
2024/01/05 04:24:16;;;;;;;14.10;13.00;;;4.60;99.90;;;;;;4882556;29;20216;-77
2024/01/05 04:26:43;;;;;;;14.07;12.67;;;4.50;99.90;;;;;;4878508;29;20197;-75
2024/01/05 04:29:10;;;;;;;13.47;12.57;;;4.50;99.90;;;;;;4878687;29;20224;-76
2024/01/05 04:31:36;;;;;;;14.60;13.20;;;4.50;99.90;;;;;;4878477;29;20241;-76
2024/01/05 04:34:04;;;;;;;15.73;14.43;;;4.50;99.90;;;;;;4879816;29;20221;-77
2024/01/05 04:36:30;;;;;;;15.07;13.93;;;4.40;99.90;;;;;;4887308;29;20213;-77
2024/01/05 04:38:57;;;;;;;16.60;15.00;;;4.40;99.90;;;;;;4879851;29;20205;-78
2024/01/05 04:41:26;;;;;;;16.47;15.17;;;4.40;99.90;;;;;;4884669;29;20632;-78
2024/01/05 04:43:53;;;;;;;16.17;14.77;;;4.40;99.90;;;;;;4881352;29;20229;-75
2024/01/05 04:46:20;;;;;;;16.33;14.90;;;4.30;99.90;;;;;;4879679;29;20261;-75
2024/01/05 04:48:47;;;;;;;17.63;15.87;;;4.40;99.90;;;;;;4877649;29;20201;-75
2024/01/05 04:51:13;;;;;;;17.90;16.03;;;4.30;99.90;;;;;;4879410;29;20232;-75
2024/01/05 04:53:40;;;;;;;16.90;15.47;;;4.30;99.90;;;;;;4877077;29;20230;-76
2024/01/05 04:56:07;;;;;;;18.03;16.30;;;4.30;99.90;;;;;;4878714;29;20626;-76
2024/01/05 04:58:35;;;;;;;17.33;15.70;;;4.30;99.90;;;;;;4876882;29;20205;-76
2024/01/05 05:01:02;;;;;;;16.70;15.13;;;4.30;99.90;;;;;;4873210;29;20210;-76
2024/01/05 05:03:30;;;;;;;16.23;14.63;;;4.30;99.90;;;;;;4879270;29;20646;-75
2024/01/05 05:05:57;;;;;;;16.47;14.97;;;4.30;99.90;;;;;;4879539;29;20626;-76
2024/01/05 05:08:24;;;;;;;15.83;14.43;;;4.30;99.90;;;;;;4882744;29;20206;-77
2024/01/05 05:10:51;;;;;;;16.33;14.93;;;4.20;99.90;;;;;;4886983;29;20237;-76
2024/01/05 05:13:18;;;;;;;16.17;14.87;;;4.20;99.90;;;;;;4880222;29;20232;-77
2024/01/05 05:15:52;;;;;;;16.83;15.33;;;4.20;99.90;;;;;;4884035;29;20265;-76
2024/01/05 05:18:19;;;;;;;16.93;15.40;;;4.20;99.90;;;;;;4880942;29;20225;-77
2024/01/05 05:20:46;;;;;;;17.93;16.33;;;4.20;99.90;;;;;;4886336;29;20205;-77
2024/01/05 05:23:12;;;;;;;17.77;16.07;;;4.10;99.90;;;;;;4882267;29;20255;-75
2024/01/05 05:25:39;;;;;;;16.73;15.37;;;4.10;99.90;;;;;;4881683;29;20258;-77
2024/01/05 05:28:06;;;;;;;17.20;15.70;;;4.10;99.90;;;;;;4880030;29;20629;-77
2024/01/05 05:30:33;;;;;;;17.40;15.77;;;4.00;99.90;;;;;;4880761;29;20201;-76
2024/01/05 05:33:01;;;;;;;17.23;15.73;;;4.00;99.90;;;;;;4879944;29;20224;-75
2024/01/05 05:35:28;;;;;;;16.70;15.30;;;4.00;99.90;;;;;;4877615;29;20197;-76
2024/01/05 05:37:55;;;;;;;16.67;15.07;;;3.90;99.90;;;;;;4877420;29;20218;-76
2024/01/05 05:40:22;;;;;;;17.20;15.70;;;3.90;99.90;;;;;;4874958;29;20285;-76
2024/01/05 05:42:49;;;;;;;17.57;16.13;;;3.90;99.90;;;;;;4876595;29;20242;-76
2024/01/05 05:45:16;;;;;;;16.70;15.17;;;3.90;99.90;;;;;;4872686;29;20206;-76
2024/01/05 05:47:43;;;;;;;16.20;14.53;;;3.80;99.90;;;;;;4875927;29;20214;-76
2024/01/05 05:50:13;;;;;;;17.57;15.90;;;3.80;99.90;;;;;;4876130;29;20265;-77
2024/01/05 05:52:40;;;;;;;16.80;15.30;;;3.80;99.90;;;;;;4880321;29;20204;-77
2024/01/05 05:55:12;;;;;;;19.20;16.67;;;3.80;99.90;;;;;;4881946;29;20205;-75
2024/01/05 05:57:39;;;;;;;17.10;15.33;;;3.80;99.90;;;;;;4880818;29;20293;-77
2024/01/05 06:00:07;;;;;;;18.67;16.57;;;3.80;99.90;;;;;;4879942;29;20209;-78
2024/01/05 06:02:33;;;;;;;17.23;15.63;;;3.80;99.90;;;;;;4873921;29;20249;-76
2024/01/05 06:05:01;;;;;;;17.07;15.30;;;3.80;99.90;;;;;;4877084;29;20272;-76
2024/01/05 06:07:29;;;;;;;19.60;15.70;;;3.80;99.90;;;;;;4894462;29;20206;-75
2024/01/05 06:09:56;;;;;;;16.57;14.90;;;3.90;99.90;;;;;;4879910;29;20193;-76
2024/01/05 06:12:22;;;;;;;17.43;15.83;;;3.90;99.90;;;;;;4880258;29;20197;-77
2024/01/05 06:14:49;;;;;;;17.97;16.00;;;4.00;99.90;;;;;;4883014;29;20229;-76
2024/01/05 06:17:17;;;;;;;17.70;16.10;;;4.00;99.90;;;;;;4876796;29;20217;-76
2024/01/05 06:19:44;;;;;;;18.53;16.77;;;4.10;99.90;;;;;;4879706;29;20201;-76
2024/01/05 06:22:11;;;;;;;18.67;16.97;;;4.10;99.90;;;;;;4879338;29;20729;-76
2024/01/05 06:24:39;;;;;;;17.53;15.97;;;4.10;99.90;;;;;;4882558;29;20229;-77
2024/01/05 06:27:06;;;;;;;20.27;18.37;;;4.10;99.90;;;;;;4878321;29;20674;-76
2024/01/05 06:29:32;;;;;;;20.80;18.60;;;4.10;99.90;;;;;;4879638;29;20678;-76
2024/01/05 06:31:59;;;;;;;19.50;17.40;;;4.10;99.90;;;;;;4879193;29;20205;-76
2024/01/05 06:34:26;;;;;;;20.43;18.33;;;4.10;99.90;;;;;;4879332;29;20709;-76
2024/01/05 06:36:53;;;;;;;20.47;18.40;;;4.10;99.90;;;;;;4878180;29;20257;-77
2024/01/05 06:39:19;;;;;;;20.70;18.70;;;4.10;99.90;;;;;;4879593;29;20240;-77
2024/01/05 06:41:48;;;;;;;20.93;18.80;;;4.10;99.90;;;;;;4877948;29;20210;-76
2024/01/05 06:44:14;;;;;;;20.40;18.23;;;4.20;99.90;;;;;;4877837;29;20313;-77
2024/01/05 06:46:41;;;;;;;19.90;18.10;;;4.20;99.90;;;;;;4879250;29;20213;-75
2024/01/05 06:49:08;;;;;;;18.73;17.20;;;4.30;99.90;;;;;;4877842;29;20235;-75
2024/01/05 06:51:37;;;;;;;18.33;16.63;;;4.30;99.90;;;;;;4878996;29;20198;-76
2024/01/05 06:54:04;;;;;;;19.70;17.90;;;4.30;99.90;;;;;;4878469;29;20233;-75
2024/01/05 06:56:32;;;;;;;19.23;17.43;;;4.30;99.90;;;;;;4877620;29;20206;-76
2024/01/05 06:59:00;;;;;;;20.83;17.33;;;4.30;99.90;;;;;;4877581;29;20205;-75
2024/01/05 07:01:27;;;;;;;19.13;17.43;;;4.30;99.90;;;;;;4877506;29;20254;-75
2024/01/05 07:03:54;;;;;;;19.70;17.80;;;4.40;99.90;;;;;;4877730;29;20736;-76
2024/01/05 07:06:21;;;;;;;18.43;16.70;;;4.50;99.90;;;;;;4877405;29;20233;-76
2024/01/05 07:08:48;;;;;;;17.77;16.37;;;4.40;99.90;;;;;;4877531;29;20211;-76
2024/01/05 07:11:20;;;;;;;18.20;16.57;;;4.40;99.90;;;;;;4877477;29;20230;-76
2024/01/05 07:13:47;;;;;;;17.37;15.87;;;4.40;99.90;;;;;;4871633;29;20736;-76
2024/01/05 07:16:17;;;;;;;17.57;16.23;;;4.40;99.90;;;;;;4885541;29;20232;-76
2024/01/05 07:18:44;;;;;;;16.50;15.10;;;4.40;99.90;;;;;;4886987;29;20720;-76
2024/01/05 07:21:11;;;;;;;16.80;15.57;;;4.40;99.90;;;;;;4877790;29;20233;-76
2024/01/05 07:23:38;;;;;;;17.77;16.20;;;4.30;99.90;;;;;;4879163;29;20774;-78
2024/01/05 07:26:05;;;;;;;17.60;16.17;;;4.40;99.90;;;;;;4885104;29;20701;-80
2024/01/05 07:28:32;;;;;;;17.80;16.30;;;4.30;99.90;;;;;;4886822;29;20200;-79
2024/01/05 07:30:58;;;;;;;18.13;16.63;;;4.30;99.90;;;;;;4886791;29;20270;-79
2024/01/05 07:33:27;;;;;;;17.60;16.33;;;4.30;99.90;;;;;;4879218;29;20648;-78
2024/01/05 07:35:53;;;;;;;18.97;17.17;;;4.30;99.90;;;;;;4880331;29;20640;-75
2024/01/05 07:38:20;;;;;;;17.57;16.10;;;4.30;99.90;;;;;;4878539;29;20649;-76
2024/01/05 07:40:47;;;;;;;17.47;16.10;;;4.30;99.90;;;;;;4877035;29;20213;-77
2024/01/05 07:43:14;;;;;;;18.23;16.53;;;4.30;99.90;;;;;;4877978;29;20221;-77
2024/01/05 07:45:41;;;;;;;17.83;16.33;;;4.40;99.90;;;;;;4882801;29;20258;-77
2024/01/05 07:48:08;;;;;;;17.53;16.03;;;4.40;99.90;;;;;;4877621;29;20282;-76
2024/01/05 07:50:36;;;;;;;16.73;15.43;;;4.50;99.90;;;;;;4878162;29;20206;-77
2024/01/05 07:53:03;;;;;;;16.90;15.57;;;4.50;99.90;;;;;;4879022;29;20321;-77
2024/01/05 07:55:30;;;;;;;17.53;16.23;;;4.50;99.90;;;;;;4879249;29;20202;-77
2024/01/05 07:57:57;;;;;;;17.23;15.57;;;4.60;99.90;;;;;;4878138;29;20699;-80
2024/01/05 08:00:24;;;;;;;16.90;15.57;;;4.60;99.90;;;;;;4877762;29;20263;-78
2024/01/05 08:02:51;;;;;;;16.07;14.97;;;4.70;99.90;;;;;;4875946;29;20220;-77
2024/01/05 08:05:18;;;;;;;17.53;15.93;;;4.70;99.90;;;;;;4869527;29;20199;-76
2024/01/05 08:07:46;;;;;;;17.10;15.70;;;4.70;99.90;;;;;;4869135;29;20278;-76
2024/01/05 08:10:13;;;;;;;18.20;16.60;;;4.80;99.90;;;;;;4864619;29;20238;-75
2024/01/05 08:12:40;;;;;;;18.53;16.77;;;4.80;99.90;;;;;;4876532;29;20217;-77
2024/01/05 08:15:08;;;;;;;18.37;16.53;;;4.90;99.90;;;;;;4877959;29;20679;-76
2024/01/05 08:17:34;;;;;;;17.47;16.07;;;4.90;99.90;;;;;;4873315;29;20218;-76
2024/01/05 08:20:01;;;;;;;17.70;16.23;;;5.00;99.90;;;;;;4879874;29;20208;-77
2024/01/05 08:22:28;;;;;;;17.57;15.93;;;5.00;99.90;;;;;;4892425;29;20221;-76
2024/01/05 08:24:56;;;;;;;16.83;15.37;;;5.10;99.90;;;;;;4879781;29;20203;-76
2024/01/05 08:27:23;;;;;;;16.20;14.90;;;5.10;99.90;;;;;;4877765;29;20753;-77
2024/01/05 08:29:50;;;;;;;16.40;15.03;;;5.20;99.90;;;;;;4885723;29;20219;-76
2024/01/05 08:32:16;;;;;;;15.97;14.63;;;5.40;99.90;;;;;;4876535;29;20268;-76
2024/01/05 08:34:43;;;;;;;17.03;15.77;;;5.40;99.90;;;;;;4877503;29;20475;-77
2024/01/05 08:37:10;;;;;;;16.80;15.40;;;5.40;99.90;;;;;;4876648;29;20207;-76
2024/01/05 08:39:39;;;;;;;15.70;14.50;;;5.40;99.90;;;;;;4877603;29;20233;-77
2024/01/05 08:42:07;;;;;;;16.10;14.90;;;5.30;99.90;;;;;;4876038;29;20215;-76
2024/01/05 08:44:35;;;;;;;15.17;14.13;;;5.30;99.90;;;;;;4876699;29;20231;-77
2024/01/05 08:47:02;;;;;;;15.50;14.37;;;5.30;99.90;;;;;;4877810;29;20330;-76
2024/01/05 08:49:29;;;;;;;15.93;14.63;;;5.30;99.90;;;;;;4877369;29;20207;-76
2024/01/05 08:51:56;;;;;;;17.03;15.73;;;5.20;99.90;;;;;;4877379;29;20211;-77
2024/01/05 08:54:23;;;;;;;17.73;16.03;;;5.20;99.90;;;;;;4876210;29;20309;-76
2024/01/05 08:56:49;;;;;;;16.60;15.20;;;5.20;99.90;;;;;;4876505;29;20299;-76
2024/01/05 08:59:17;;;;;;;16.73;15.37;;;5.20;99.90;;;;;;4876205;29;20278;-77
2024/01/05 09:01:45;;;;;;;16.53;15.23;;;5.20;99.90;;;;;;4876030;29;20209;-76
2024/01/05 09:04:12;;;;;;;16.77;15.43;;;5.20;99.90;;;;;;4876180;29;20276;-77
2024/01/05 09:06:39;;;;;;;17.00;15.47;;;5.30;99.90;;;;;;4877512;29;20214;-76
2024/01/05 09:09:06;;;;;;;16.27;14.80;;;5.40;99.90;;;;;;4877785;29;20196;-76
2024/01/05 09:11:32;;;;;;;16.70;15.30;;;5.50;99.90;;;;;;4876102;29;20233;-76
2024/01/05 09:13:59;;;;;;;15.83;14.67;;;5.60;99.90;;;;;;4876785;29;20282;-76
2024/01/05 09:16:27;;;;;;;15.40;14.30;;;5.70;99.90;;;;;;4877953;29;20203;-77
2024/01/05 09:18:54;;;;;;;15.07;13.77;;;5.80;99.90;;;;;;4880817;29;20706;-78
2024/01/05 09:21:21;;;;;;;14.03;13.03;;;5.90;99.90;;;;;;4882422;29;20290;-78
2024/01/05 09:23:48;;;;;;;14.00;13.07;;;6.00;99.90;;;;;;4880217;29;20783;-78
2024/01/05 09:26:15;;;;;;;13.60;12.70;;;6.20;99.90;;;;;;4880920;29;20306;-78
2024/01/05 09:28:42;;;;;;;13.40;12.60;;;6.30;99.90;;;;;;4876485;29;20224;-78
2024/01/05 09:31:09;;;;;;;13.20;12.30;;;6.50;99.90;;;;;;4880263;29;20256;-78
2024/01/05 09:33:38;;;;;;;13.60;12.77;;;6.50;99.90;;;;;;4889073;29;20236;-78
2024/01/05 09:36:08;;;;;;;13.03;12.17;;;6.70;99.90;;;;;;4881367;29;20221;-77
2024/01/05 09:38:36;;;;;;;12.70;11.90;;;6.80;99.90;;;;;;4881994;29;20308;-78
2024/01/05 09:41:03;;;;;;;12.67;11.97;;;6.90;99.90;;;;;;4880481;29;20265;-78
2024/01/05 09:43:30;;;;;;;13.10;12.17;;;6.90;99.90;;;;;;4879856;29;20655;-77
2024/01/05 09:45:57;;;;;;;12.83;12.03;;;7.00;99.90;;;;;;4880089;29;20638;-77
2024/01/05 09:48:25;;;;;;;12.83;12.03;;;7.00;99.90;;;;;;4877694;29;20201;-76
2024/01/05 09:50:55;;;;;;;12.73;12.00;;;7.10;99.90;;;;;;4880326;29;20210;-77
2024/01/05 09:53:21;;;;;;;13.40;12.60;;;7.10;99.90;;;;;;4877228;29;20220;-77
2024/01/05 09:55:49;;;;;;;14.03;13.03;;;7.20;99.90;;;;;;4874395;29;20684;-77
2024/01/05 09:58:16;;;;;;;13.00;12.17;;;7.20;99.90;;;;;;4879858;29;20217;-76
2024/01/05 10:00:45;;;;;;;12.90;12.10;;;7.30;99.90;;;;;;4878570;29;20201;-76
2024/01/05 10:03:19;;;;;;;12.03;11.23;;;7.30;99.90;;;;;;4872126;29;20226;-77
2024/01/05 10:05:46;;;;;;;4.67;4.27;;;7.40;99.90;;;;;;4879688;29;20204;-77
2024/01/05 10:08:14;;;;;;;4.23;3.83;;;7.40;99.90;;;;;;4878769;29;20646;-77
2024/01/05 10:10:46;;;;;;;8.73;8.10;;;7.40;99.90;;;;;;4872154;29;20568;-77
2024/01/05 10:13:13;;;;;;;8.97;8.20;;;7.50;99.90;;;;;;4873484;29;20248;-76
2024/01/05 10:15:53;;;;;;;6.27;4.47;;;7.50;99.90;;;;;;4879753;29;20257;-77
2024/01/05 10:18:20;;;;;;;9.93;9.00;;;7.40;99.90;;;;;;4879926;29;20658;-77
2024/01/05 10:20:47;;;;;;;7.00;6.30;;;7.40;99.90;;;;;;4877615;29;20258;-75
2024/01/05 10:23:16;;;;;;;7.63;5.33;;;7.40;99.90;;;;;;4878180;29;20788;-76
2024/01/05 10:25:44;;;;;;;7.50;6.90;;;7.40;99.90;;;;;;4878491;29;20209;-77
2024/01/05 10:28:23;;;;;;;6.03;4.83;;;7.50;99.90;;;;;;4887149;29;20532;-77
2024/01/05 10:30:51;;;;;;;6.10;5.60;;;7.50;99.90;;;;;;4882453;29;20209;-78
2024/01/05 10:33:18;;;;;;;11.57;10.67;;;7.50;99.90;;;;;;4877451;29;20222;-76
2024/01/05 10:35:45;;;;;;;13.47;12.37;;;7.60;99.90;;;;;;4896020;29;20212;-78
2024/01/05 10:38:13;;;;;;;6.00;5.40;;;7.60;99.90;;;;;;4888498;29;20256;-79
2024/01/05 10:40:42;;;;;;;10.00;9.10;;;7.80;99.90;;;;;;4880722;29;20265;-78
2024/01/05 10:43:09;;;;;;;11.80;10.80;;;7.80;99.90;;;;;;4876692;29;20273;-78
2024/01/05 10:45:37;;;;;;;13.13;11.97;;;7.90;99.90;;;;;;4880717;29;20216;-77
2024/01/05 10:48:09;;;;;;;14.40;13.33;;;7.90;99.90;;;;;;4880487;29;20288;-82
2024/01/05 10:50:37;;;;;;;10.20;9.23;;;8.10;99.90;;;;;;4880166;29;20740;-78
2024/01/05 10:53:08;;;;;;;9.90;9.00;;;8.20;99.90;;;;;;4878956;29;20217;-77
2024/01/05 10:55:36;;;;;;;7.63;7.00;;;8.20;99.90;;;;;;4894997;29;20215;-77
2024/01/05 10:58:07;;;;;;;5.47;3.97;;;8.30;99.90;;;;;;4879465;29;20189;-77
2024/01/05 11:00:34;;;;;;;8.67;8.07;;;8.30;99.90;;;;;;4885357;29;20219;-77
2024/01/05 11:03:10;;;;;;;8.87;8.13;;;8.40;99.90;;;;;;4880215;29;20229;-77
2024/01/05 11:05:41;;;;;;;5.63;5.17;;;8.40;99.90;;;;;;4880713;29;20208;-77
2024/01/05 11:08:19;;;;;;;5.90;5.40;;;8.40;99.90;;;;;;4878997;29;20209;-77
2024/01/05 11:10:53;;;;;;;4.30;3.90;;;8.40;99.90;;;;;;4880514;29;20229;-77
2024/01/05 11:13:44;;;;;;;12.60;11.80;;;8.40;99.90;;;;;;4880079;29;20217;-77
2024/01/05 11:17:00;;;;;;;7.47;6.90;;;8.40;99.90;;;;;;4874225;29;20230;-77
2024/01/05 11:19:54;;;;;;;5.70;5.30;;;8.40;99.90;;;;;;4875633;29;20254;-77
2024/01/05 11:22:28;;;;;;;11.13;10.33;;;8.40;99.90;;;;;;4868596;29;20205;-77
2024/01/05 11:24:58;;;;;;;9.80;8.90;;;8.40;99.90;;;;;;4873871;29;20706;-77
2024/01/05 11:27:29;;;;;;;8.97;8.27;;;8.40;99.90;;;;;;4880816;29;20240;-77
2024/01/05 11:29:57;;;;;;;6.87;6.27;;;8.40;99.90;;;;;;4874581;29;20201;-77
2024/01/05 11:32:35;;;;;;;5.60;5.03;;;8.40;99.90;;;;;;4892673;29;20201;-77
2024/01/05 11:35:02;;;;;;;12.87;12.00;;;8.50;99.90;;;;;;4873891;29;20256;-77
2024/01/05 11:37:30;;;;;;;5.57;5.07;;;8.50;99.90;;;;;;4880468;29;20209;-77
2024/01/05 11:39:59;;;;;;;12.10;11.20;;;8.50;99.90;;;;;;4878407;29;20253;-77
2024/01/05 11:42:34;;;;;;;8.90;8.30;;;8.50;99.90;;;;;;4879593;29;20215;-78
2024/01/05 11:45:04;;;;;;;13.50;12.60;;;8.50;99.90;;;;;;4890035;29;20200;-76
2024/01/05 11:47:41;;;;;;;13.20;12.13;;;8.50;99.90;;;;;;4878292;29;20205;-78
2024/01/05 11:50:24;;;;;;;7.97;7.37;;;8.60;99.90;;;;;;4878602;29;20201;-78
2024/01/05 11:53:14;;;;;;;13.20;12.30;;;8.60;99.90;;;;;;4876974;29;20222;-76
2024/01/05 11:55:47;;;;;;;12.07;11.27;;;8.60;99.90;;;;;;4890082;29;20268;-77
2024/01/05 11:58:18;;;;;;;7.90;7.20;;;8.60;99.90;;;;;;4872810;29;20628;-78
2024/01/05 12:00:47;;;;;;;6.70;5.57;;;8.60;99.90;;;;;;4878337;29;20205;-77
2024/01/05 12:03:15;;;;;;;6.37;5.03;;;8.70;99.90;;;;;;4879752;29;20650;-78
2024/01/05 12:05:42;;;;;;;7.57;5.93;;;8.70;99.90;;;;;;4877827;29;20269;-77
2024/01/05 12:08:11;;;;;;;7.50;6.80;;;8.70;99.90;;;;;;4879836;29;20224;-78
2024/01/05 12:10:39;;;;;;;6.90;6.20;;;8.70;99.90;;;;;;4878719;29;20306;-77
2024/01/05 12:13:07;;;;;;;9.90;9.20;;;8.70;99.90;;;;;;4879166;29;20261;-78
2024/01/05 12:15:35;;;;;;;7.57;6.90;;;8.70;99.90;;;;;;4879880;29;20225;-77
2024/01/05 12:18:07;;;;;;;6.50;5.93;;;8.70;99.90;;;;;;4876842;29;20208;-78
2024/01/05 12:20:34;;;;;;;13.57;12.60;;;8.70;99.90;;;;;;4880837;29;20233;-79
2024/01/05 12:23:02;;;;;;;7.23;6.53;;;8.60;99.90;;;;;;4879351;29;20338;-77
2024/01/05 12:25:29;;;;;;;12.60;11.60;;;8.70;99.90;;;;;;4870934;29;20219;-78
2024/01/05 12:27:58;;;;;;;12.33;11.40;;;8.70;99.90;;;;;;4886473;29;20205;-78
2024/01/05 12:30:24;;;;;;;7.17;5.67;;;8.70;99.90;;;;;;4884579;29;20201;-78
2024/01/05 12:32:52;;;;;;;13.10;12.30;;;8.70;99.90;;;;;;4879254;29;20713;-78
2024/01/05 12:35:20;;;;;;;9.10;8.40;;;8.70;99.90;;;;;;4879255;29;20636;-78
2024/01/05 12:37:51;;;;;;;8.57;7.97;;;8.70;99.90;;;;;;4878554;29;20242;-78
2024/01/05 12:40:23;;;;;;;10.70;9.97;;;8.70;99.90;;;;;;4878217;29;20230;-77
2024/01/05 12:42:51;;;;;;;12.57;11.77;;;8.70;99.90;;;;;;4883857;29;20770;-77
2024/01/05 12:45:22;;;;;;;13.37;12.47;;;8.70;99.90;;;;;;4879470;29;20661;-77